Flight Track Log - Related Links

Times and Time Zones

All times are in EDT time to prevent confusion due to time zone crossing. See the EJA312 flight status page for this flight to view local times or setup timezone preferences in your user account.

Time Position Orientation Groundspeed Altitude Reporting Facility
EDT Latitude Longitude Course Direction KTS MPH feet Rate Location/Type
Sat 04:18:22 PM 42.1333 -87.9167 346° North 164 189 2,000  Level Chicago TRACON
Sat 04:19:22 PM 42.1833 -87.9333 346° North 200 230 4,600 2,600 Climbing Chicago TRACON
Sat 04:19:52 PM 42.2125 -87.9417 348° North 205 236 5,900 3,457 Climbing Chicago Center
Sat 04:20:54 PM 42.2819 -87.9683 344° North 255 293 9,900 4,306 Climbing Chicago Center
Sat 04:21:56 PM 42.3642 -87.9892 349° North 265 305 14,800 4,258 Climbing Chicago Center
Sat 04:22:58 PM 42.4411 -87.9733 North 274 315 18,700 3,532 Climbing Chicago Center
Sat 04:24:00 PM 42.5222 -87.9694 North 287 330 22,100 2,081 Climbing Chicago Center
Sat 04:25:02 PM 42.6103 -87.9844 353° North 315 362 23,000 1,258 Climbing Chicago Center
Sat 04:26:04 PM 42.7144 -87.9919 357° North 372 428 24,700 2,081 Climbing Chicago Center
Sat 04:27:06 PM 42.8392 -88.0033 356° North 376 433 27,300 1,610 Climbing Chicago Center
Sat 04:28:07 PM 42.9464 -88.0161 355° North 384 442 28,000 341 Climbing Chicago Center
Sat 04:29:09 PM 43.0647 -88.0292 355° North 423 487 28,000  Level Chicago Center
Sat 04:30:11 PM 43.1861 -88.0400 356° North 437 503 28,000  Level Chicago Center
Sat 04:31:13 PM 43.3036 -88.0533 355° North 429 494 28,000  Level Chicago Center
Sat 04:32:15 PM 43.4206 -88.0661 355° North 427 491 28,000  Level Chicago Center
Sat 04:33:17 PM 43.5600 -88.0806 356° North 426 490 28,000  Level Chicago Center
Sat 04:34:19 PM 43.6761 -88.0928 356° North 424 488 28,000  Level Chicago Center
Sat 04:35:21 PM 43.7925 -88.1058 355° North 423 487 28,000  Level Chicago Center
Sat 04:36:23 PM 43.9100 -88.1167 356° North 424 488 28,000  Level Chicago Center
Sat 04:37:24 PM 44.0269 -88.1300 355° North 424 488 28,000  Level Chicago Center
Sat 04:38:26 PM 44.1669 -88.1458 355° North 422 486 28,000  Level Chicago Center
Sat 04:39:28 PM 44.2833 -88.1581 356° North 421 484 28,000  Level Chicago Center
Sat 04:40:30 PM 44.4000 -88.1706 356° North 422 486 28,000  Level Chicago Center
Sat 04:41:32 PM 44.5156 -88.1833 355° North 419 482 28,000  Level Chicago Center
Sat 04:42:34 PM 44.6319 -88.1956 356° North 420 483 28,000  Level Chicago Center
Sat 04:43:36 PM 44.7475 -88.2083 356° North 417 480 28,000  Level Chicago Center
Sat 04:44:57 PM 44.9250 -88.2286 355° North 419 482 28,000  Level Minneapolis Center
Sat 04:45:59 PM 45.0422 -88.2417 356° North 422 486 28,000  Level Minneapolis Center
Sat 04:47:01 PM 45.1592 -88.2544 356° North 419 482 28,000  Level Minneapolis Center
Sat 04:48:03 PM 45.2750 -88.2672 356° North 419 482 28,000  Level Minneapolis Center
Sat 04:49:05 PM 45.3886 -88.2814 355° North 419 482 28,000  Level Minneapolis Center
Sat 04:50:07 PM 45.5064 -88.2933 356° North 423 487 28,000  Level Minneapolis Center
Sat 04:51:08 PM 45.6458 -88.3100 355° North 421 484 28,000  Level Minneapolis Center
Sat 04:52:10 PM 45.7622 -88.3233 355° North 422 486 28,000 -290 Level Minneapolis Center
Sat 04:53:12 PM 45.8800 -88.3358 356° North 425 489 27,400 -919 Descending Minneapolis Center
Sat 04:54:14 PM 45.9961 -88.3486 356° North 422 486 26,100 -1,645 Descending Minneapolis Center
Sat 04:55:16 PM 46.1094 -88.3631 355° North 414 476 24,000 -2,683 Descending Minneapolis Center
Sat 04:56:17 PM 46.2186 -88.3744 356° North 400 460 20,600 -3,902 Descending Minneapolis Center
Sat 04:57:19 PM 46.3442 -88.3417 10° North 388 447 16,000 -4,065 Descending Minneapolis Center
Sat 04:58:21 PM 46.4439 -88.3206 North 365 420 12,200 -3,629 Descending Minneapolis Center
Sat 04:59:23 PM 46.5325 -88.3003 North 320 368 8,500 -3,429 Descending Minneapolis Center
Sat 05:00:27 PM 46.6117 -88.2831 North 288 331 5,000 -2,304 Descending Minneapolis Center
Sat 05:01:28 PM 46.6889 -88.2650 North 260 299 3,700 -634 Descending Minneapolis Center
Sat 05:02:30 PM 46.7556 -88.2517 North 244 281 3,700  Level Minneapolis Center
Sat 05:03:32 PM 46.8264 -88.2353 North 249 287 3,700  Level Minneapolis Center
Sat 05:04:34 PM 46.8931 -88.2197 North 240 276 3,700  Level Minneapolis Center
Sat 05:05:35 PM 46.9569 -88.2061 North 232 267 3,700  Level Minneapolis Center
Sat 05:06:37 PM 47.0194 -88.2000 North 230 265 3,700  Level Minneapolis Center
Sat 05:08:00 PM 47.1037 -88.3619 307° West  Level FlightAware Approximate
Sat 05:15:00 PM 47.1667 -88.4833 334° Northwest  Level FlightAware Approximate
Sat 05:16:00 PM 47.1684 -88.4891 334° Northwest  Level Estimated

Login

Don't have an account? Register now (free) for customized features, flight alerts, and more!